NCAR-RAP Real-Time Weather Data

Output produced by METARs form (20 February 2019  18:30 UTC)
found at http://weather.rap.ucar.edu/surface/
 
RJOW 201000Z 31008KT 9999 FEW030 BKN040 08/01 Q1023
RJOW 200900Z 31010KT 9999 FEW020 BKN040 08/02 Q1022
RJOW 200800Z 30013KT 9999 FEW020 SCT025 BKN040 09/04 Q1021
RJOW 200700Z 29011KT 9999 FEW015 SCT020 BKN035 09/04 Q1021
RJOW 200600Z 30013KT 9999 FEW015 BKN020 BKN030 09/04 Q1021
RJOW 200500Z 30010KT 9999 FEW015 BKN020 BKN030 08/04 Q1021
RJOW 200400Z 30009KT 9999 FEW020 BKN025 08/04 Q1021
RJOW 200300Z 30009KT 9999 FEW020 SCT025 BKN030 09/04 Q1021
RJOW 200200Z 31010KT 9999 FEW015 SCT020 BKN025 09/05 Q1021
RJOW 200100Z 30009KT 9999 FEW007 SCT020 BKN025 09/06 Q1020
RJOW 200000Z 28007KT 9999 FEW005 BKN025 09/05 Q1020
RJOW 192300Z 30008KT 9999 FEW005 SCT020 BKN025 09/06 Q1019
RJOW 191000Z 28011KT 9999 FEW005 SCT009 BKN015 14/13 Q1014
RJOW 190900Z 25010KT 9999 -SHRA FEW005 SCT008 BKN015 15/14 Q1013
RJOW 190800Z 25011KT 9999 -SHRA FEW005 SCT015 BKN025 17/15 Q1011
RJOW 190736Z 24012KT 210V270 3000 -SHRA BR FEW005 SCT015 BKN020 17/15 Q1011 RMK 1ST005 3CU015 5CU020 A2987
RJOW 190700Z 22009KT 170V270 9999 FEW015 SCT025 BKN040 18/15 Q1010
RJOW 190600Z 18013KT 9999 FEW010 SCT025 BKN040 17/15 Q1009
RJOW 190500Z 17019KT 9999 FEW008 SCT040 BKN110 14/13 Q1008
RJOW 190411Z 15012KT 7000 -SHRA FEW001 SCT008 BKN020 13/12 Q1009 RMK 1ST001 3ST008 5CU020 A2982 P/FR
RJOW 190400Z 16004KT 1500 R11/P2000N SHRA BCFG BR FEW001 SCT004 BKN020 12/12 Q1010
RJOW 190335Z 33003KT 290V010 2500 R11/2000N SHRA BR FEW001 SCT006 BKN020 12/12 Q1011 RMK 2ST001 3ST006 5CU020 A2987
RJOW 190307Z 30007KT 4000 R11/0800VP2000U SHRA BR FEW001 SCT010 BKN020 12/12 Q1012 RMK 2ST001 4CU010 5CU020 A2990
RJOW 190300Z 29008KT 4000 R11/0800V1800D SHRA BR FEW001 SCT010 BKN020 12/12 Q1012
RJOW 190200Z 09008KT 9999 R11/2000N -SHRA FEW001 SCT015 BKN030 11/10 Q1011
RJOW 190135Z 08005KT 010V160 7000 -SHRA FEW001 SCT010 BKN030 11/10 Q1012 RMK 2ST001 3CU010 5CU030 A2991
RJOW 190113Z 04008KT 4000 -SHRA BR FEW000 SCT004 BKN010 10/10 Q1013 RMK 1ST000 3ST004 5CU010 A2993
RJOW 190100Z 06009KT 020V080 3000 SHRA BR FEW000 SCT015 BKN030 10/10 Q1013
RJOW 190042Z 05007KT 010V080 3000 R11/1000VP2000U SHRA BR FEW000 SCT015 BKN030 10/10 Q1014 RMK 1ST000 3CU015 5CU030 A2995
RJOW 190032Z 04007KT 360V080 2000 R11/1000VP2000D +SHRA BR FEW002 SCT020 BKN040 10/10 Q1014 RMK 1ST002 4CU020 5CU040 A2996
RJOW 190024Z 03008KT 350V060 4000 SHRA BR FEW002 SCT025 BKN050 10/10 Q1015 RMK 1ST002 3CU025 5SC050 A2997
RJOW 190013Z 04007KT 360V070 5000 RA BR FEW002 SCT040 BKN050 10/10 Q1015 RMK 1ST002 3SC040 7SC050 A2998
RJOW 190000Z 03006KT 360V070 8000 -RA FEW000 SCT045 BKN060 10/10 Q1015
RJOW 182300Z 05003KT 020V080 8000 -RA BCFG BR FEW004 SCT040 BKN050 09/09 Q1016
RJOW 181000Z 10003KT CAVOK 08/04 Q1024
RJOW 180900Z 08001KT CAVOK 10/02 Q1024
RJOW 180800Z VRB01KT CAVOK 10/02 Q1023
RJOW 180700Z VRB02KT CAVOK 10/01 Q1023